Boi Taull, Spain
Current Conditions -  °F | °C
As of 7:30 PM on Monday 20 Oct 2014 (Local Time) from LFBT Reporting Station
Clear Clear  
Wind Chill: 70°   Ceiling: Unl
Heat Index: 70°   Visibility: 6mi
Dew Point: 59°   Wind: 2mph
Humidity: 68%   Direction: NA
Pressure: 30.12"   Gusts: NA
Location:  42.52°N, 0.85°E
Report Text: LFBT 201730Z AUTO VRB02KT 9999 NSC 21/15 Q1020
Loading
Personal Weather Stations






























Interactive Weather Map
Tropical Storm Tracking
New forecast layout! Learn more

10-Day Weather Forecast

Advertisements
Track Severe Weather on mobile